Time;durP1;ratioP1;P1;durP2;ratioP2;P2;SDS_P1;SDS_P2;PMS_P1;PMS_P2;Temp;Humidity;BMP_temperature;BMP_pressure;BME280_temperature;BME280_humidity;BME280_pressure;Samples;Min_cycle;Max_cycle;Signal;HPM_P1;HPM_P2
2023/04/29 05:20:55;;;;;;;9.97;4.90;;;11.80;99.90;;;;;;5137983;27;20270;-83
2023/04/29 05:28:13;;;;;;;5.77;4.77;;;11.90;99.90;;;;;;5120488;27;20272;-82
2023/04/29 05:36:29;;;;;;;4.87;3.80;;;;;;;;;;5098109;27;20304;-82
2023/04/29 05:42:30;;;;;;;3.93;3.53;;;;;;;;;;5085730;27;20538;-85
2023/04/29 05:48:21;;;;;;;7.03;4.27;;;;;;;;;;5135525;27;20285;-86
2023/04/29 05:54:56;;;;;;;5.53;4.40;;;;;;;;;;5135931;27;20271;-87
2023/04/29 06:02:19;;;;;;;4.30;3.87;;;12.80;99.90;;;;;;5146042;27;20270;-84
2023/04/29 06:06:16;;;;;;;3.27;2.97;;;12.60;99.90;;;;;;5136762;27;20283;-84
2023/04/29 06:11:11;;;;;;;3.93;3.37;;;;;;;;;;5135813;27;20748;-82
2023/04/29 06:15:51;;;;;;;4.03;2.83;;;;;;;;;;5134417;27;20283;-85
2023/04/29 06:19:25;;;;;;;3.97;3.57;;;13.20;99.90;;;;;;5135913;27;20619;-81
2023/04/29 06:23:13;;;;;;;3.10;2.77;;;13.30;99.90;;;;;;5134471;27;20728;-80
2023/04/29 06:27:38;;;;;;;4.37;2.30;;;13.00;99.90;;;;;;5113841;27;20287;-82
2023/04/29 06:31:19;;;;;;;3.83;2.50;;;13.20;99.90;;;;;;5134846;27;20273;-82
2023/04/29 06:35:08;;;;;;;2.83;2.60;;;13.80;99.90;;;;;;5133464;27;20263;-78
2023/04/29 06:37:33;;;;;;;4.33;2.50;;;13.60;99.90;;;;;;5132958;28;20193;-80
2023/04/29 06:41:06;;;;;;;2.63;1.93;;;;;;;;;;5134664;27;20271;-80
2023/04/29 06:43:32;;;;;;;3.73;2.30;;;13.70;99.90;;;;;;5119650;28;20715;-79
2023/04/29 06:46:23;;;;;;;4.63;3.23;;;13.80;99.90;;;;;;5137718;27;20287;-79
2023/04/29 06:51:17;;;;;;;2.10;1.90;;;;;;;;;;5137359;27;20271;-79
2023/04/29 06:55:28;;;;;;;2.70;1.67;;;13.90;99.90;;;;;;5123430;27;20273;-80
2023/04/29 06:59:44;;;;;;;2.23;1.80;;;13.80;99.90;;;;;;5136929;27;20277;-78
2023/04/29 07:03:27;;;;;;;3.20;2.70;;;;;;;;;;5130181;27;20271;-76
2023/04/29 07:07:52;;;;;;;1.47;1.37;;;;;;;;;;5113193;27;20685;-78
2023/04/29 07:11:18;;;;;;;2.47;1.53;;;;;;;;;;5129078;27;20274;-78
2023/04/29 07:15:08;;;;;;;3.60;1.40;;;14.70;99.90;;;;;;5133385;27;20274;-77
2023/04/29 07:17:33;;;;;;;3.30;1.60;;;14.50;99.90;;;;;;5118373;28;20195;-77
2023/04/29 07:21:08;;;;;;;1.30;1.20;;;14.60;99.90;;;;;;5132283;27;20267;-76
2023/04/29 07:23:33;;;;;;;1.60;1.30;;;14.60;99.90;;;;;;5132050;28;20204;-76
2023/04/29 07:28:09;;;;;;;3.03;1.43;;;14.60;99.90;;;;;;5145111;27;20297;-80
2023/04/29 07:30:35;;;;;;;1.40;1.30;;;14.60;99.90;;;;;;5093926;28;20271;-78
2023/04/29 07:33:01;;;;;;;1.60;1.50;;;14.80;99.90;;;;;;5116138;28;20228;-77
2023/04/29 07:35:27;;;;;;;1.63;1.20;;;14.90;99.90;;;;;;5112402;28;20188;-77
2023/04/29 07:37:53;;;;;;;2.07;1.50;;;15.10;99.90;;;;;;5112353;28;20180;-79
2023/04/29 07:40:18;;;;;;;3.43;1.70;;;15.20;99.90;;;;;;5117525;28;20471;-79
2023/04/29 07:42:44;;;;;;;2.20;1.20;;;15.10;99.90;;;;;;5116515;28;20250;-79
2023/04/29 07:45:12;;;;;;;1.13;1.03;;;15.40;99.90;;;;;;5117020;28;20568;-80
2023/04/29 07:47:38;;;;;;;1.40;1.30;;;16.10;99.90;;;;;;5116017;28;20207;-79
2023/04/29 07:50:04;;;;;;;2.00;1.50;;;16.40;99.90;;;;;;5107836;28;20208;-80
2023/04/29 07:52:30;;;;;;;2.83;1.80;;;17.30;99.90;;;;;;5097162;28;20185;-80
2023/04/29 07:54:55;;;;;;;2.50;1.70;;;17.40;99.90;;;;;;5095431;28;20176;-81
2023/04/29 07:57:21;;;;;;;3.73;2.33;;;17.40;99.90;;;;;;5097220;28;20196;-80
2023/04/29 07:59:53;;;;;;;1.90;1.60;;;18.00;99.90;;;;;;5094270;28;20631;-80
2023/04/29 08:02:19;;;;;;;1.40;1.30;;;18.60;99.90;;;;;;5096956;28;20251;-81
2023/04/29 08:04:45;;;;;;;2.63;1.40;;;19.20;99.90;;;;;;5095539;28;20227;-80
2023/04/29 08:07:11;;;;;;;2.20;1.70;;;18.10;99.90;;;;;;5096019;28;20699;-80
2023/04/29 08:09:37;;;;;;;1.53;1.43;;;16.80;99.90;;;;;;5097030;28;20169;-81
2023/04/29 08:12:03;;;;;;;1.67;1.40;;;16.30;99.90;;;;;;5088653;28;20182;-85
2023/04/29 08:14:29;;;;;;;1.70;1.50;;;16.30;99.90;;;;;;5074965;28;20204;-82
2023/04/29 08:16:55;;;;;;;1.60;1.50;;;16.20;99.90;;;;;;5098991;28;20755;-80
2023/04/29 08:19:20;;;;;;;1.13;0.90;;;16.30;99.90;;;;;;5092271;28;20598;-81
2023/04/29 08:21:46;;;;;;;1.27;1.10;;;16.50;99.90;;;;;;5091883;28;20184;-81
2023/04/29 08:24:12;;;;;;;1.47;1.07;;;16.40;99.90;;;;;;5091117;28;20169;-79
2023/04/29 08:26:41;;;;;;;3.27;1.30;;;16.00;99.90;;;;;;5090086;28;20235;-80
2023/04/29 08:29:07;;;;;;;1.83;1.00;;;15.80;99.90;;;;;;5091492;28;20169;-80
2023/04/29 08:31:33;;;;;;;3.70;1.13;;;15.70;99.90;;;;;;5089939;28;20674;-82
2023/04/29 08:33:59;;;;;;;1.20;1.10;;;15.40;99.90;;;;;;5089788;28;20179;-81
2023/04/29 08:36:27;;;;;;;2.80;1.10;;;15.40;99.90;;;;;;5089763;28;20589;-81
2023/04/29 08:38:53;;;;;;;1.33;1.17;;;15.40;99.90;;;;;;5081413;28;20639;-81
2023/04/29 08:41:19;;;;;;;3.77;1.33;;;15.30;99.90;;;;;;5078530;28;20187;-81
2023/04/29 08:43:45;;;;;;;1.10;1.00;;;15.20;99.90;;;;;;5078678;28;20257;-81
2023/04/29 08:46:11;;;;;;;1.37;1.00;;;15.20;99.90;;;;;;5077996;28;20194;-81
2023/04/29 08:48:39;;;;;;;1.83;1.10;;;15.20;99.90;;;;;;5077739;28;20165;-80
2023/04/29 08:51:05;;;;;;;1.83;0.90;;;15.20;99.90;;;;;;5076692;28;20165;-82
2023/04/29 08:53:31;;;;;;;2.30;0.83;;;15.20;99.90;;;;;;5077809;28;20204;-82
2023/04/29 08:56:02;;;;;;;1.63;1.27;;;15.20;99.90;;;;;;5078492;28;20214;-82
2023/04/29 08:58:33;;;;;;;1.00;0.90;;;15.30;99.90;;;;;;5078775;28;20153;-81
2023/04/29 09:00:59;;;;;;;1.70;0.97;;;15.50;99.90;;;;;;5077875;28;20157;-81
2023/04/29 09:03:36;;;;;;;1.80;1.27;;;17.10;99.90;;;;;;5077220;28;20169;-82
2023/04/29 09:06:04;;;;;;;0.80;0.70;;;18.40;99.90;;;;;;5078921;28;20223;-80
2023/04/29 09:08:31;;;;;;;1.17;0.80;;;19.20;99.90;;;;;;5080769;28;20176;-81
2023/04/29 09:10:58;;;;;;;1.50;1.00;;;18.80;99.90;;;;;;5078767;28;20203;-81
2023/04/29 09:13:28;;;;;;;1.10;1.00;;;18.90;99.90;;;;;;5077216;28;20197;-81
2023/04/29 09:15:54;;;;;;;2.27;1.10;;;19.50;99.90;;;;;;5078336;28;20190;-82
2023/04/29 09:18:45;;;;;;;1.80;1.10;;;19.00;99.90;;;;;;5079677;28;20197;-82
2023/04/29 09:21:18;;;;;;;4.90;1.30;;;18.40;99.90;;;;;;5078705;28;20175;-83
2023/04/29 09:23:44;;;;;;;1.20;1.10;;;17.60;99.90;;;;;;5079079;28;20241;-82
2023/04/29 09:26:10;;;;;;;2.53;1.03;;;17.40;99.90;;;;;;5079091;28;20219;-81
2023/04/29 09:28:38;;;;;;;1.43;1.33;;;17.90;99.90;;;;;;5078880;28;20192;-82
2023/04/29 09:31:06;;;;;;;1.30;1.20;;;18.70;99.90;;;;;;5079259;28;20576;-81
2023/04/29 09:33:47;;;;;;;1.10;1.00;;;18.90;99.90;;;;;;5078180;28;20169;-81
2023/04/29 09:36:34;;;;;;;1.43;1.13;;;18.90;99.90;;;;;;5078711;28;20200;-80
2023/04/29 09:38:59;;;;;;;2.70;1.00;;;18.40;99.90;;;;;;5077728;28;20188;-81
2023/04/29 09:41:25;;;;;;;1.40;1.30;;;18.50;99.90;;;;;;5085057;28;20186;-82
2023/04/29 09:44:09;;;;;;;2.20;1.03;;;18.90;99.90;;;;;;5078356;28;20184;-81
2023/04/29 09:46:36;;;;;;;1.73;0.93;;;19.80;99.90;;;;;;5076456;28;20209;-82
2023/04/29 09:49:22;;;;;;;1.40;1.30;;;20.50;99.90;;;;;;5076533;28;20205;-82
2023/04/29 09:51:57;;;;;;;0.90;0.90;;;19.80;99.90;;;;;;5076902;28;20627;-81
2023/04/29 09:54:24;;;;;;;2.00;1.00;;;18.90;99.90;;;;;;5077389;28;20179;-81
2023/04/29 09:56:51;;;;;;;1.00;0.90;;;18.20;99.90;;;;;;5077560;28;20608;-81
2023/04/29 09:59:21;;;;;;;2.47;1.00;;;17.70;99.90;;;;;;5075841;28;20183;-83
2023/04/29 10:01:49;;;;;;;2.27;0.93;;;17.80;99.90;;;;;;5077445;28;20173;-82
2023/04/29 10:04:16;;;;;;;3.13;1.10;;;18.10;99.90;;;;;;5076445;28;20650;-85
2023/04/29 10:06:44;;;;;;;1.40;1.20;;;18.50;99.90;;;;;;5066310;28;20219;-82
2023/04/29 10:09:16;;;;;;;0.93;0.90;;;18.70;99.90;;;;;;5076224;28;20175;-82
2023/04/29 10:11:47;;;;;;;1.90;1.23;;;18.20;99.90;;;;;;5075974;28;20203;-82
2023/04/29 10:14:21;;;;;;;1.47;1.00;;;18.40;99.90;;;;;;5075292;28;20181;-82
2023/04/29 10:17:08;;;;;;;1.00;1.00;;;18.50;99.90;;;;;;5075650;28;20233;-81
2023/04/29 10:19:59;;;;;;;0.80;0.80;;;18.60;99.90;;;;;;5076150;28;20178;-81
2023/04/29 10:22:46;;;;;;;1.70;0.90;;;19.00;99.90;;;;;;5074447;28;20575;-81
2023/04/29 10:25:15;;;;;;;1.77;1.00;;;19.90;99.90;;;;;;5075086;28;20188;-81
2023/04/29 10:27:44;;;;;;;1.40;0.80;;;20.50;99.90;;;;;;5074076;28;20578;-81
2023/04/29 10:30:15;;;;;;;3.23;0.90;;;20.80;99.90;;;;;;5074153;28;20221;-80
2023/04/29 10:32:42;;;;;;;1.10;1.03;;;21.30;99.90;;;;;;5076492;28;20188;-83
2023/04/29 10:35:17;;;;;;;1.50;0.90;;;20.90;99.90;;;;;;5060354;28;20178;-83
2023/04/29 10:37:45;;;;;;;1.47;1.00;;;20.80;99.90;;;;;;5063560;28;20196;-81
2023/04/29 10:40:15;;;;;;;1.20;1.03;;;20.10;99.90;;;;;;5075646;28;20185;-84
2023/04/29 10:42:53;;;;;;;1.60;0.90;;;19.20;99.90;;;;;;5075999;28;20177;-83
2023/04/29 10:45:23;;;;;;;2.50;1.00;;;18.60;99.90;;;;;;5076091;28;20208;-81
2023/04/29 10:48:17;;;;;;;1.13;0.97;;;18.30;99.90;;;;;;5076664;28;20727;-83
2023/04/29 10:50:46;;;;;;;3.90;1.30;;;18.10;99.90;;;;;;5071240;28;20254;-82
2023/04/29 10:53:15;;;;;;;1.80;1.70;;;17.90;99.90;;;;;;5071035;28;20571;-82
2023/04/29 10:55:42;;;;;;;3.47;1.60;;;17.40;99.90;;;;;;5075560;28;20185;-83
2023/04/29 10:58:43;;;;;;;3.87;1.50;;;16.60;99.90;;;;;;5061552;28;20239;-81
2023/04/29 11:01:14;;;;;;;1.40;1.30;;;15.90;99.90;;;;;;5062248;28;20194;-81
2023/04/29 11:03:53;;;;;;;2.33;1.30;;;15.50;99.90;;;;;;5078447;28;20675;-82
2023/04/29 11:06:24;;;;;;;1.40;1.23;;;15.40;99.90;;;;;;5058110;28;20561;-81
2023/04/29 11:09:01;;;;;;;2.50;1.00;;;15.30;99.90;;;;;;5070644;28;20570;-80
2023/04/29 11:11:45;;;;;;;3.17;0.97;;;15.00;99.90;;;;;;5074064;28;20190;-82
2023/04/29 11:14:12;;;;;;;2.53;1.10;;;14.90;99.90;;;;;;5074251;28;20250;-82
2023/04/29 11:16:48;;;;;;;1.47;0.90;;;14.90;99.90;;;;;;5073815;28;20205;-78
2023/04/29 11:19:15;;;;;;;1.50;1.40;;;15.00;99.90;;;;;;5078927;28;20161;-82
2023/04/29 11:21:43;;;;;;;5.33;1.70;;;15.20;99.90;;;;;;5079078;28;20268;-81
2023/04/29 11:24:11;;;;;;;2.03;1.83;;;15.40;99.90;;;;;;5078470;28;20186;-79
2023/04/29 11:26:37;;;;;;;1.73;1.63;;;15.60;99.90;;;;;;5079000;28;20295;-82
2023/04/29 11:29:04;;;;;;;2.10;1.90;;;15.70;99.90;;;;;;5077468;28;20554;-82
2023/04/29 11:31:31;;;;;;;2.40;1.70;;;15.80;99.90;;;;;;5078462;28;20243;-81
2023/04/29 11:33:57;;;;;;;3.13;1.70;;;16.10;99.90;;;;;;5076771;28;20180;-83
2023/04/29 11:36:23;;;;;;;5.13;1.87;;;16.40;99.90;;;;;;5078759;28;20191;-81
2023/04/29 11:38:51;;;;;;;2.03;1.83;;;16.80;99.90;;;;;;5068990;28;20277;-81
2023/04/29 11:41:17;;;;;;;2.43;1.40;;;16.90;99.90;;;;;;5073233;28;20188;-80
2023/04/29 11:43:45;;;;;;;1.33;1.23;;;16.90;99.90;;;;;;5076350;28;20176;-79
2023/04/29 11:46:15;;;;;;;1.30;1.20;;;17.10;99.90;;;;;;5077935;28;20206;-79
2023/04/29 11:48:48;;;;;;;5.27;1.40;;;17.70;99.90;;;;;;5077358;28;20202;-79
2023/04/29 11:51:21;;;;;;;1.30;1.03;;;17.90;99.90;;;;;;5076400;28;20590;-79
2023/04/29 11:53:47;;;;;;;1.63;1.20;;;18.00;99.90;;;;;;5069574;28;20193;-78
2023/04/29 11:56:13;;;;;;;1.20;0.90;;;17.90;99.90;;;;;;5075575;28;20574;-78
2023/04/29 11:58:40;;;;;;;1.37;1.00;;;17.40;99.90;;;;;;5077091;28;20173;-78
2023/04/29 12:01:07;;;;;;;1.17;1.07;;;17.30;99.90;;;;;;5077026;28;20186;-78
2023/04/29 12:03:32;;;;;;;2.00;1.20;;;17.60;99.90;;;;;;5075867;28;20187;-78
2023/04/29 12:06:00;;;;;;;1.30;1.20;;;17.60;99.90;;;;;;5076959;28;20251;-78
2023/04/29 12:08:27;;;;;;;2.10;1.30;;;17.50;99.90;;;;;;5059735;28;20187;-78
2023/04/29 12:10:57;;;;;;;1.87;1.70;;;18.10;99.90;;;;;;5056104;28;20172;-78
2023/04/29 12:13:26;;;;;;;4.37;2.07;;;19.70;99.90;;;;;;5058676;28;20176;-79
2023/04/29 12:15:52;;;;;;;1.37;1.17;;;20.80;99.90;;;;;;5070034;28;20196;-80
2023/04/29 12:18:21;;;;;;;3.40;1.40;;;21.80;99.90;;;;;;5074100;28;20183;-80
2023/04/29 12:20:47;;;;;;;3.07;1.30;;;22.40;99.90;;;;;;5060225;28;20658;-80
2023/04/29 12:23:15;;;;;;;2.20;1.20;;;23.50;99.90;;;;;;5058668;28;20554;-77
2023/04/29 12:25:41;;;;;;;2.93;1.40;;;24.20;99.90;;;;;;5060358;28;20181;-81
2023/04/29 12:28:13;;;;;;;1.83;1.00;;;24.20;99.90;;;;;;5065524;28;20208;-80
2023/04/29 12:30:39;;;;;;;7.70;1.80;;;23.40;99.90;;;;;;5060577;28;20310;-79
2023/04/29 12:33:08;;;;;;;1.30;1.00;;;22.90;99.90;;;;;;5062124;28;20234;-78
2023/04/29 12:35:34;;;;;;;1.20;0.80;;;21.90;99.90;;;;;;5062992;28;20171;-78
2023/04/29 12:38:01;;;;;;;3.33;0.90;;;20.70;99.90;;;;;;5077748;28;20217;-78
2023/04/29 12:40:27;;;;;;;2.10;0.97;;;20.00;99.90;;;;;;5074556;28;20184;-78
2023/04/29 12:42:53;;;;;;;1.63;0.90;;;19.40;99.90;;;;;;5060412;28;20182;-78
2023/04/29 12:45:33;;;;;;;2.53;0.90;;;19.00;99.90;;;;;;5063931;28;20176;-78
2023/04/29 12:47:59;;;;;;;2.50;1.00;;;18.50;99.90;;;;;;5068822;28;20682;-78
2023/04/29 12:50:36;;;;;;;2.23;0.90;;;18.20;99.90;;;;;;5074448;28;20203;-77
2023/04/29 12:53:07;;;;;;;1.13;0.90;;;18.50;99.90;;;;;;5078716;28;20165;-77
2023/04/29 12:55:37;;;;;;;2.40;1.10;;;20.20;99.90;;;;;;5065135;28;20235;-77
2023/04/29 12:58:04;;;;;;;2.53;1.03;;;21.80;99.90;;;;;;5057015;28;20194;-77
2023/04/29 13:00:30;;;;;;;2.70;0.90;;;22.50;99.90;;;;;;5057833;28;20179;-77
2023/04/29 13:02:56;;;;;;;6.00;1.23;;;22.50;99.90;;;;;;5067374;28;20188;-77
2023/04/29 13:05:22;;;;;;;1.03;0.93;;;21.70;99.90;;;;;;5076192;28;20546;-77
2023/04/29 13:07:48;;;;;;;1.20;0.80;;;21.10;99.90;;;;;;5076049;28;20253;-77
2023/04/29 13:10:15;;;;;;;2.23;1.10;;;21.20;99.90;;;;;;5077028;28;20173;-77
2023/04/29 13:12:41;;;;;;;4.03;1.00;;;22.30;99.90;;;;;;5080990;28;20189;-78
2023/04/29 13:15:10;;;;;;;1.80;0.90;;;22.20;99.90;;;;;;5081740;28;20176;-80
2023/04/29 13:17:36;;;;;;;1.77;0.80;;;21.20;99.90;;;;;;5070591;28;20198;-78
2023/04/29 13:20:05;;;;;;;1.23;1.00;;;20.80;99.90;;;;;;5059469;28;20158;-79
2023/04/29 13:22:31;;;;;;;1.40;1.20;;;20.30;99.90;;;;;;5058843;28;20197;-78
2023/04/29 13:24:57;;;;;;;1.83;0.90;;;19.90;99.90;;;;;;5060062;28;20176;-77
2023/04/29 13:27:23;;;;;;;1.40;1.20;;;19.70;99.90;;;;;;5069638;28;20281;-77
2023/04/29 13:29:49;;;;;;;0.80;0.70;;;20.20;99.90;;;;;;5056216;28;20227;-76
2023/04/29 13:32:15;;;;;;;3.30;1.10;;;20.20;99.90;;;;;;5055818;28;20203;-77
2023/04/29 13:34:42;;;;;;;1.23;1.00;;;19.60;99.90;;;;;;5057959;28;20647;-77
2023/04/29 13:37:08;;;;;;;0.77;0.70;;;19.00;99.90;;;;;;5057598;28;20192;-77
2023/04/29 13:39:34;;;;;;;1.00;0.90;;;18.50;99.90;;;;;;5076887;28;20185;-78
2023/04/29 13:42:00;;;;;;;0.93;0.93;;;18.50;99.90;;;;;;5078190;28;20176;-76
2023/04/29 13:44:26;;;;;;;1.37;0.90;;;19.40;99.90;;;;;;5077212;28;20604;-77
2023/04/29 13:46:52;;;;;;;1.30;1.03;;;20.10;99.90;;;;;;5077668;28;20200;-77
2023/04/29 13:49:17;;;;;;;3.27;0.70;;;21.60;99.90;;;;;;5057621;28;20192;-76
2023/04/29 13:51:43;;;;;;;3.73;1.10;;;22.40;99.90;;;;;;5056853;28;20196;-79
2023/04/29 13:54:09;;;;;;;1.27;1.17;;;23.10;99.90;;;;;;5058147;28;20177;-78
2023/04/29 13:56:35;;;;;;;3.17;1.10;;;22.40;99.20;;;;;;5057520;28;20201;-78
2023/04/29 13:59:00;;;;;;;1.23;0.90;;;20.90;99.60;;;;;;5063187;28;20711;-79
2023/04/29 14:01:26;;;;;;;1.80;1.10;;;19.90;99.90;;;;;;5073524;28;20181;-78
2023/04/29 14:03:52;;;;;;;3.50;0.90;;;19.20;99.90;;;;;;5067099;28;20228;-79
2023/04/29 14:06:18;;;;;;;0.93;0.93;;;18.70;99.90;;;;;;5053640;28;20675;-77
2023/04/29 14:08:44;;;;;;;1.53;1.10;;;18.30;99.90;;;;;;5070752;28;20181;-77
2023/04/29 14:11:09;;;;;;;1.30;1.20;;;18.10;99.90;;;;;;5075271;28;20180;-78
2023/04/29 14:13:35;;;;;;;1.57;1.03;;;17.90;99.90;;;;;;5075984;28;20173;-77
2023/04/29 14:16:04;;;;;;;1.20;0.90;;;17.60;99.90;;;;;;5075610;28;20200;-78
2023/04/29 14:18:29;;;;;;;2.00;1.50;;;17.50;99.90;;;;;;5073643;28;20176;-78
2023/04/29 14:20:56;;;;;;;1.27;1.17;;;17.40;99.90;;;;;;5074039;28;20176;-78
2023/04/29 14:23:22;;;;;;;4.00;1.13;;;17.90;99.90;;;;;;5073933;28;20171;-78
2023/04/29 14:25:48;;;;;;;1.17;1.00;;;19.20;99.90;;;;;;5075152;28;20241;-78
2023/04/29 14:28:13;;;;;;;2.93;1.17;;;19.50;99.90;;;;;;5074012;28;20205;-79
2023/04/29 14:30:40;;;;;;;4.17;1.00;;;19.40;99.90;;;;;;5075214;28;20228;-78
2023/04/29 14:33:06;;;;;;;1.17;0.93;;;20.10;99.90;;;;;;5075381;28;20168;-80
2023/04/29 14:35:32;;;;;;;1.30;1.00;;;19.30;99.90;;;;;;5074645;28;20746;-79
2023/04/29 14:37:58;;;;;;;1.13;1.00;;;19.30;99.90;;;;;;5075014;28;20188;-79
2023/04/29 14:40:23;;;;;;;1.63;1.13;;;19.50;99.90;;;;;;5073889;28;20276;-78
2023/04/29 14:42:49;;;;;;;1.50;1.00;;;19.60;99.90;;;;;;5075533;28;20177;-78
2023/04/29 14:45:15;;;;;;;2.63;0.97;;;19.20;99.90;;;;;;5074488;28;20177;-79
2023/04/29 14:47:41;;;;;;;1.10;1.00;;;19.10;99.90;;;;;;5074284;28;20208;-79
2023/04/29 14:50:09;;;;;;;0.80;0.80;;;19.60;99.90;;;;;;5076011;28;20175;-78
2023/04/29 14:52:35;;;;;;;0.90;0.90;;;20.00;99.90;;;;;;5076014;28;20169;-79
2023/04/29 14:55:01;;;;;;;1.70;0.70;;;20.20;99.90;;;;;;5074702;28;20171;-78
2023/04/29 14:57:26;;;;;;;1.63;1.23;;;20.40;99.90;;;;;;5075731;28;20192;-78
2023/04/29 14:59:52;;;;;;;1.23;0.90;;;21.00;99.90;;;;;;5076445;28;20193;-79
2023/04/29 15:02:18;;;;;;;1.30;1.10;;;21.70;99.40;;;;;;5075904;28;20177;-79
2023/04/29 15:04:44;;;;;;;2.50;1.37;;;22.00;99.90;;;;;;5076008;28;20177;-78
2023/04/29 15:07:14;;;;;;;2.73;1.00;;;22.20;99.90;;;;;;5076505;28;20209;-78
2023/04/29 15:09:40;;;;;;;1.47;1.10;;;21.90;97.00;;;;;;5074815;28;20537;-79
2023/04/29 15:12:06;;;;;;;1.20;1.03;;;20.90;99.90;;;;;;5075873;28;20173;-79
2023/04/29 15:14:32;;;;;;;0.90;0.90;;;20.30;98.70;;;;;;5076154;28;20226;-78
2023/04/29 15:16:58;;;;;;;2.20;0.93;;;19.60;99.90;;;;;;5075243;28;20556;-79
2023/04/29 15:19:25;;;;;;;1.10;1.00;;;19.10;99.90;;;;;;5075481;28;20169;-78
2023/04/29 15:21:51;;;;;;;3.10;1.27;;;18.70;99.90;;;;;;5075197;28;20169;-78
2023/04/29 15:24:17;;;;;;;1.27;1.03;;;18.40;99.90;;;;;;5075826;28;20251;-78
2023/04/29 15:26:43;;;;;;;1.47;0.80;;;18.40;99.90;;;;;;5077526;28;20239;-79
2023/04/29 15:29:09;;;;;;;0.80;0.80;;;18.30;99.90;;;;;;5078833;28;20208;-79
2023/04/29 15:31:35;;;;;;;1.90;0.83;;;18.10;99.90;;;;;;5077333;28;20221;-78
2023/04/29 15:34:01;;;;;;;1.50;1.10;;;18.90;99.90;;;;;;5078477;28;20630;-79
2023/04/29 15:36:29;;;;;;;1.93;0.90;;;19.50;99.90;;;;;;5075316;28;20708;-78
2023/04/29 15:38:55;;;;;;;1.27;0.80;;;20.00;99.90;;;;;;5076339;28;20648;-77
2023/04/29 15:41:20;;;;;;;2.77;0.80;;;20.50;99.90;;;;;;5076945;28;20173;-78
2023/04/29 15:43:46;;;;;;;0.80;0.80;;;20.80;99.90;;;;;;5076683;28;20676;-78
2023/04/29 15:46:12;;;;;;;1.87;1.27;;;21.00;99.90;;;;;;5075436;28;20227;-78
2023/04/29 15:48:38;;;;;;;0.80;0.80;;;20.60;99.90;;;;;;5077532;28;20282;-81
2023/04/29 15:51:03;;;;;;;1.83;1.10;;;20.10;99.90;;;;;;5078762;28;20177;-82
2023/04/29 15:53:29;;;;;;;2.70;1.03;;;20.70;99.90;;;;;;5078952;28;20578;-81
2023/04/29 15:55:55;;;;;;;2.53;0.83;;;21.00;99.90;;;;;;5079476;28;20195;-78
2023/04/29 15:58:21;;;;;;;0.87;0.87;;;20.90;99.40;;;;;;5078188;28;20176;-78
2023/04/29 16:00:46;;;;;;;1.67;1.07;;;20.50;99.70;;;;;;5078864;28;20179;-80
2023/04/29 16:03:12;;;;;;;2.93;0.90;;;19.90;99.90;;;;;;5077534;28;20177;-81
2023/04/29 16:05:38;;;;;;;0.83;0.80;;;19.70;99.90;;;;;;5077347;28;20199;-81
2023/04/29 16:08:04;;;;;;;1.00;0.90;;;19.00;99.90;;;;;;5079827;28;20208;-78
2023/04/29 16:10:30;;;;;;;1.63;0.90;;;17.90;99.90;;;;;;5078439;28;20635;-79
2023/04/29 16:12:55;;;;;;;1.20;1.00;;;17.30;99.90;;;;;;5077628;28;20248;-76
2023/04/29 16:15:21;;;;;;;2.00;1.10;;;16.90;99.90;;;;;;5076132;28;20268;-78
2023/04/29 16:17:47;;;;;;;2.67;1.43;;;16.70;99.90;;;;;;5075541;28;20199;-78
2023/04/29 16:20:13;;;;;;;0.73;0.73;;;16.60;99.90;;;;;;5076118;28;20764;-80
2023/04/29 16:22:39;;;;;;;3.07;1.00;;;16.50;99.90;;;;;;5078824;28;20626;-81
2023/04/29 16:25:05;;;;;;;0.80;0.80;;;16.40;99.90;;;;;;5077219;28;20183;-81
2023/04/29 16:27:31;;;;;;;0.87;0.80;;;16.40;99.90;;;;;;5077362;28;20240;-80
2023/04/29 16:29:56;;;;;;;1.73;1.13;;;16.30;99.90;;;;;;5076451;28;20640;-79
2023/04/29 16:32:22;;;;;;;0.83;0.83;;;16.30;99.90;;;;;;5078598;28;20647;-80
2023/04/29 16:34:48;;;;;;;2.40;1.30;;;16.10;99.90;;;;;;5077964;28;20171;-79
2023/04/29 16:37:13;;;;;;;1.77;1.00;;;15.90;99.90;;;;;;5075954;28;20701;-79
2023/04/29 16:39:42;;;;;;;2.60;1.10;;;15.70;99.90;;;;;;5077518;28;20173;-80
2023/04/29 16:42:08;;;;;;;0.90;0.90;;;15.60;99.90;;;;;;5076605;28;20177;-79
2023/04/29 16:44:34;;;;;;;2.00;0.70;;;15.50;99.90;;;;;;5076530;28;20203;-81
2023/04/29 16:46:59;;;;;;;0.80;0.80;;;15.40;99.90;;;;;;5076289;28;20236;-79
2023/04/29 16:49:25;;;;;;;2.03;0.77;;;15.30;99.90;;;;;;5075432;28;20216;-82
2023/04/29 16:51:51;;;;;;;2.43;0.80;;;15.20;99.90;;;;;;5075221;28;20262;-80
2023/04/29 16:54:17;;;;;;;1.10;1.00;;;15.20;99.90;;;;;;5076324;28;20173;-79
2023/04/29 16:56:43;;;;;;;1.20;1.10;;;15.10;99.90;;;;;;5077648;28;20608;-81
